Flight Track Log - Related Links

Times and Time Zones

All times are in EDT time to prevent confusion due to time zone crossing. See the SWA2975 flight status page for this flight to view local times or setup timezone preferences in your user account.

Time Position Orientation Groundspeed Altitude Reporting Facility
EDT Latitude Longitude Course Direction KTS MPH feet Rate Location/Type
Mon 11:12:58 PM 41.7680 -87.7780 243° Southwest 155 178 2,100  Level FlightAware ADS-B
Mon 11:13:21 PM 41.7600 -87.8000 244° Southwest 192 221 2,300 766 Climbing FlightAware ADS-B
Mon 11:13:45 PM 41.7500 -87.8280 244° Southwest 215 247 2,700 1,925 Climbing FlightAware ADS-B
Mon 11:14:14 PM 41.7410 -87.8650 252° West 229 264 4,000 2,947 Climbing FlightAware ADS-B
Mon 11:14:42 PM 41.7380 -87.9050 264° West 234 269 5,500 3,158 Climbing FlightAware ADS-B
Mon 11:15:11 PM 41.7350 -87.9440 264° West 232 267 7,000 3,306 Climbing FlightAware ADS-B
Mon 11:15:31 PM 41.7330 -87.9760 265° West 233 268 8,200 3,167 Climbing FlightAware ADS-B
Mon 11:15:47 PM 41.7330 -87.9980 270° West 232 267 8,900 3,000 Climbing FlightAware ADS-B
Mon 11:15:59 PM 41.7400 -88.0130 302° West 234 269 9,600 3,000 Climbing FlightAware ADS-B
Mon 11:16:15 PM 41.7560 -88.0230 335° Northwest 242 278 10,300 2,333 Climbing FlightAware ADS-B
Mon 11:16:53 PM 41.8000 -88.0290 354° North 273 314 11,700 2,241 Climbing FlightAware ADS-B
Mon 11:17:38 PM 41.8590 -88.0280 North 298 343 13,400 2,436 Climbing FlightAware ADS-B
Mon 11:18:34 PM 41.9400 -88.0280 360° North 313 360 15,800 2,571 Climbing FlightAware ADS-B
Mon 11:19:16 PM 42.0020 -88.0270 North 321 369 17,600 2,233 Climbing FlightAware ADS-B
Mon 11:20:00 PM 42.0680 -88.0270 360° North 338 389 19,000 1,895 Climbing FlightAware ADS-B
Mon 11:20:32 PM 42.1190 -88.0270 360° North 353 406 20,000 1,792 Climbing FlightAware ADS-B
Mon 11:21:17 PM 42.1920 -88.0270 360° North 369 425 21,300 1,786 Climbing FlightAware ADS-B
Mon 11:21:56 PM 42.2620 -88.0280 359° North 381 438 22,500 1,810 Climbing FlightAware ADS-B
Mon 11:22:20 PM 42.3050 -88.0240 North 389 448 23,200 1,667 Climbing FlightAware ADS-B
Mon 11:22:32 PM 42.3250 -88.0100 27° Northeast 397 457 23,500 1,500 Climbing FlightAware ADS-B
Mon 11:22:44 PM 42.3410 -87.9900 43° Northeast 404 465 23,800 1,636 Climbing FlightAware ADS-B
Mon 11:23:27 PM 42.3940 -87.9050 50° Northeast 416 479 25,000 1,397 Climbing FlightAware ADS-B
Mon 11:23:57 PM 42.4200 -87.8330 64° Northeast 436 502 25,500 1,108 Climbing FlightAware ADS-B
Mon 11:24:32 PM 42.4290 -87.7380 83° East 452 520 26,200 1,151 Climbing FlightAware ADS-B
Mon 11:25:10 PM 42.4380 -87.6310 83° East 465 535 26,900 1,071 Climbing FlightAware ADS-B
Mon 11:25:56 PM 42.4490 -87.4950 84° East 479 551 27,700 1,034 Climbing FlightAware ADS-B
Mon 11:26:37 PM 42.4590 -87.3710 84° East 489 563 28,400 1,059 Climbing FlightAware ADS-B
Mon 11:27:21 PM 42.4700 -87.2350 84° East 499 574 29,200 1,059 Climbing FlightAware ADS-B
Mon 11:28:02 PM 42.4800 -87.1080 84° East 507 583 29,900 1,390 Climbing FlightAware ADS-B
Mon 11:28:43 PM 42.4900 -86.9800 84° East 502 578 31,100 1,519 Climbing FlightAware ADS-B
Mon 11:29:21 PM 42.4990 -86.8580 84° East 503 579 31,900 1,360 Climbing FlightAware ADS-B
Mon 11:29:58 PM 42.5080 -86.7440 84° East 501 577 32,800 1,443 Climbing FlightAware ADS-B
Mon 11:30:40 PM 42.5180 -86.6170 84° East 497 572 33,800 1,357 Climbing FlightAware ADS-B
Mon 11:31:22 PM 42.5270 -86.4870 85° East 495 570 34,700 847 Climbing FlightAware ADS-B
Mon 11:32:05 PM 42.5370 -86.3510 84° East 495 570 35,000 212 Climbing FlightAware ADS-B
Mon 11:32:47 PM 42.5460 -86.2240 84° East 495 570 35,000  Level FlightAware ADS-B
Mon 11:33:30 PM 42.5550 -86.0910 85° East 495 570 35,000  Level FlightAware ADS-B
Mon 11:34:07 PM 42.5630 -85.9770 85° East 496 571 35,000  Level FlightAware ADS-B
Mon 11:34:45 PM 42.5710 -85.8590 85° East 496 571 35,000  Level FlightAware ADS-B
Mon 11:35:29 PM 42.5800 -85.7220 85° East 496 571 35,000  Level FlightAware ADS-B
Mon 11:36:08 PM 42.5880 -85.6010 85° East 498 573 35,000  Level FlightAware ADS-B
Mon 11:36:46 PM 42.5960 -85.4830 85° East 499 574 35,000  Level FlightAware ADS-B
Mon 11:37:27 PM 42.6040 -85.3550 85° East 500 575 35,000  Level FlightAware ADS-B
Mon 11:38:11 PM 42.6130 -85.2160 85° East 501 577 35,000  Level FlightAware ADS-B
Mon 11:38:41 PM 42.6180 -85.1220 86° East 501 577 35,000  Level FlightAware ADS-B
Mon 11:39:26 PM 42.6270 -84.9830 85° East 501 577 35,000  Level FlightAware ADS-B
Mon 11:40:09 PM 42.6350 -84.8470 85° East 501 577 35,000  Level FlightAware ADS-B
Mon 11:40:46 PM 42.6410 -84.7330 86° East 501 577 35,000  Level FlightAware ADS-B
Mon 11:41:27 PM 42.6490 -84.6020 85° East 500 575 35,000  Level FlightAware ADS-B
Mon 11:42:11 PM 42.6560 -84.4720 86° East 500 575 35,000  Level FlightAware ADS-B
Mon 11:42:53 PM 42.6630 -84.3390 86° East 500 575 35,000  Level FlightAware ADS-B
Mon 11:43:34 PM 42.6700 -84.2130 86° East 500 575 35,000  Level FlightAware ADS-B
Mon 11:44:11 PM 42.6760 -84.0900 86° East 500 575 35,000  Level FlightAware ADS-B
Mon 11:44:55 PM 42.6830 -83.9540 86° East 499 574 35,000  Level FlightAware ADS-B
Mon 11:46:00 PM 42.6930 -83.7510 86° East 499 574 35,000  Level FlightAware ADS-B
Mon 11:46:40 PM 42.6990 -83.6270 86° East 495 570 35,000  Level FlightAware ADS-B
Mon 11:47:22 PM 42.7050 -83.4960 86° East 489 563 35,000  Level FlightAware ADS-B
Mon 11:47:58 PM 42.7100 -83.3860 86° East 488 562 35,000  Level FlightAware ADS-B
Mon 11:48:38 PM 42.7160 -83.2630 86° East 487 560 35,000  Level FlightAware ADS-B
Mon 11:49:24 PM 42.7220 -83.1250 87° East 485 558 35,000  Level FlightAware ADS-B
Mon 11:50:04 PM 42.7270 -83.0020 87° East 483 556 35,000  Level FlightAware ADS-B
Mon 11:50:48 PM 42.7330 -82.8720 86° East 482 555 35,000  Level FlightAware ADS-B
Mon 11:51:28 PM 42.7380 -82.7490 87° East 482 555 35,000  Level FlightAware ADS-B
Mon 11:52:12 PM 42.7430 -82.6140 87° East 483 556 35,000  Level FlightAware ADS-B
Mon 11:52:49 PM 42.7470 -82.5050 87° East 485 558 35,000  Level FlightAware ADS-B
Mon 11:53:28 PM 42.7520 -82.3870 87° East 485 558 35,000  Level FlightAware ADS-B
Mon 11:54:10 PM 42.7560 -82.2600 88° East 485 558 35,000  Level FlightAware ADS-B
Mon 11:54:49 PM 42.7600 -82.1500 87° East 485 558 35,000  Level FlightAware ADS-B
Mon 11:55:48 PM 42.7660 -81.9920 87° East 485 558 35,000  Level FlightAware ADS-B
Mon 11:56:28 PM 42.7700 -81.8600 88° East 486 559 35,000  Level FlightAware ADS-B
Mon 11:57:06 PM 42.7730 -81.7480 88° East 487 560 35,000  Level FlightAware ADS-B
Mon 11:57:45 PM 42.7770 -81.6220 87° East 486 559 35,000  Level FlightAware ADS-B
Mon 11:58:29 PM 42.7810 -81.4960 87° East 485 558 35,000  Level FlightAware ADS-B
Mon 11:59:11 PM 42.7850 -81.3700 87° East 486 559 35,000  Level FlightAware ADS-B
Mon 11:59:39 PM 42.7870 -81.2790 88° East 487 560 35,000  Level FlightAware ADS-B
Tue 12:00:21 AM 42.7910 -81.1420 88° East 491 565 35,000  Level FlightAware ADS-B
Tue 12:01:10 AM 42.7940 -80.9980 88° East 493 567 35,000  Level FlightAware ADS-B
Tue 12:01:44 AM 42.7970 -80.8930 88° East 495 570 35,000  Level FlightAware ADS-B
Tue 12:02:34 AM 42.8010 -80.7290 88° East 496 571 35,000  Level FlightAware ADS-B
Tue 12:03:16 AM 42.8040 -80.6010 88° East 497 572 35,000  Level FlightAware ADS-B
Tue 12:03:52 AM 42.8060 -80.4960 88° East 497 572 35,000  Level FlightAware ADS-B
Tue 12:04:37 AM 42.8090 -80.3440 88° East 496 571 35,000  Level FlightAware ADS-B
Tue 12:05:23 AM 42.8110 -80.2200 89° East 497 572 35,000  Level FlightAware ADS-B
Tue 12:06:03 AM 42.8130 -80.0830 89° East 496 571 35,000  Level FlightAware ADS-B
Tue 12:06:42 AM 42.8150 -79.9640 89° East 496 571 35,000  Level FlightAware ADS-B
Tue 12:07:23 AM 42.8170 -79.8380 89° East 496 571 35,000  Level FlightAware ADS-B
Tue 12:08:10 AM 42.8190 -79.6910 89° East 496 571 35,000  Level FlightAware ADS-B
Tue 12:08:47 AM 42.8210 -79.5770 89° East 495 570 35,000  Level FlightAware ADS-B
Tue 12:09:28 AM 42.8230 -79.4340 89° East 496 571 35,000  Level FlightAware ADS-B
Tue 12:10:17 AM 42.8240 -79.2940 89° East 497 572 35,000  Level FlightAware ADS-B
Tue 12:10:51 AM 42.8250 -79.1900 89° East 497 572 35,000  Level FlightAware ADS-B
Tue 12:11:30 AM 42.8260 -79.0420 89° East 496 571 35,000  Level FlightAware ADS-B
Tue 12:12:16 AM 42.8270 -78.9010 89° East 496 571 35,000  Level FlightAware ADS-B
Tue 12:12:56 AM 42.8280 -78.7770 89° East 496 571 35,000  Level FlightAware ADS-B
Tue 12:13:32 AM 42.8290 -78.6620 89° East 496 571 35,000  Level FlightAware ADS-B
Tue 12:14:14 AM 42.8290 -78.5320 90° East 495 570 35,000  Level FlightAware ADS-B
Tue 12:14:56 AM 42.8290 -78.4040 90° East 494 568 35,000  Level FlightAware ADS-B
Tue 12:16:18 AM 42.8300 -78.1590 90° East 497 572 35,000  Level FlightAware ADS-B
Tue 12:17:00 AM 42.8270 -78.0180 92° East 497 572 35,000 -439 Level FlightAware ADS-B
Tue 12:17:40 AM 42.8250 -77.9320 92° East 496 571 34,400 -1,041 Descending FlightAware ADS-B
Tue 12:18:38 AM 42.8190 -77.7090 92° East 494 568 33,300 -1,041 Descending FlightAware ADS-B
Tue 12:19:18 AM 42.8160 -77.5870 92° East 491 565 32,700 -929 Descending FlightAware ADS-B
Tue 12:20:02 AM 42.8130 -77.4510 92° East 490 564 32,000 -929 Descending FlightAware ADS-B
Tue 12:20:42 AM 42.8090 -77.3280 92° East 491 565 31,400 -977 Descending FlightAware ADS-B
Tue 12:21:28 AM 42.8050 -77.1840 92° East 492 566 30,600 -977 Descending FlightAware ADS-B
Tue 12:22:08 AM 42.8010 -77.0600 92° East 495 570 30,000 -929 Descending FlightAware ADS-B
Tue 12:22:52 AM 42.7970 -76.9250 92° East 497 572 29,300 -714 Descending FlightAware ADS-B
Tue 12:23:32 AM 42.7930 -76.8000 92° East 494 568 29,000 -214 Descending FlightAware ADS-B
Tue 12:24:16 AM 42.7890 -76.6630 92° East 493 567 29,000  Level FlightAware ADS-B
Tue 12:24:56 AM 42.7840 -76.5410 93° East 491 565 29,000  Level FlightAware ADS-B
Tue 12:25:36 AM 42.7800 -76.4180 92° East 489 563 29,000  Level FlightAware ADS-B
Tue 12:26:20 AM 42.7750 -76.2840 93° East 486 559 29,000  Level FlightAware ADS-B
Tue 12:27:00 AM 42.7710 -76.1610 92° East 484 557 29,000  Level FlightAware ADS-B
Tue 12:27:44 AM 42.7650 -76.0260 93° East 482 555 29,000  Level FlightAware ADS-B
Tue 12:28:20 AM 42.7610 -75.9200 93° East 482 555 29,000  Level FlightAware ADS-B
Tue 12:29:02 AM 42.7560 -75.7930 93° East 482 555 29,000 -1,171 Level FlightAware ADS-B
Tue 12:29:42 AM 42.7500 -75.6710 94° East 485 558 27,400 -2,625 Descending FlightAware ADS-B
Tue 12:30:22 AM 42.7450 -75.5480 93° East 490 564 25,500 -2,850 Descending FlightAware ADS-B
Tue 12:31:02 AM 42.7400 -75.4240 93° East 474 545 23,600 -2,775 Descending FlightAware ADS-B
Tue 12:31:42 AM 42.7350 -75.3100 93° East 459 528 21,800 -2,625 Descending FlightAware ADS-B
Tue 12:32:22 AM 42.7300 -75.1970 93° East 444 511 20,100 -2,526 Descending FlightAware ADS-B
Tue 12:32:58 AM 42.7250 -75.0980 94° East 429 494 18,600 -2,475 Descending FlightAware ADS-B
Tue 12:33:42 AM 42.7190 -74.9840 94° East 416 479 16,800 -2,429 Descending FlightAware ADS-B
Tue 12:34:22 AM 42.7140 -74.8830 94° East 405 466 15,200 -1,683 Descending FlightAware ADS-B
Tue 12:35:04 AM 42.7100 -74.7840 93° East 402 463 14,500 -525 Descending FlightAware ADS-B
Tue 12:35:42 AM 42.7070 -74.7020 93° East 402 463 14,500  Level FlightAware ADS-B
Tue 12:36:31 AM 42.7030 -74.5970 93° East 402 463 14,500 -2,258 Level FlightAware ADS-B
Tue 12:37:15 AM 42.6906 -74.4767 93° East 361 415 11,000 -2,270 Descending Boston Center
Tue 12:38:22 AM 42.6908 -74.3411 90° East 298 343 10,300 -1,039 Descending Boston Center
Tue 12:39:22 AM 42.7281 -74.2406 63° Northeast 293 337 8,800 -1,488 Descending Boston Center
Tue 12:40:23 AM 42.7689 -74.1456 60° Northeast 290 334 7,300 -1,623 Descending Boston Center
Tue 12:41:24 AM 42.8142 -74.0561 55° Northeast 282 325 5,500 -1,587 Descending Boston Center
Tue 12:42:24 AM 42.8550 -73.9694 57° Northeast 275 316 4,100 -1,339 Descending Boston Center
Tue 12:43:25 AM 42.8936 -73.8856 58° Northeast 252 290 2,800 -1,033 Descending Boston Center
Tue 12:44:26 AM 42.8756 -73.8169 110° East 208 239 2,000 -496 Descending Boston Center
Tue 12:45:26 AM 42.8278 -73.8103 174° South 154 177 1,800 -595 Descending Boston Center
Tue 12:46:27 AM 42.7819 -73.8092 179° South 144 166 800 -984 Descending Boston Center

Login

Don't have an account? Register now (free) for customized features, flight alerts, and more!